Time;durP1;ratioP1;P1;durP2;ratioP2;P2;SDS_P1;SDS_P2;PMS_P1;PMS_P2;Temp;Humidity;BMP_temperature;BMP_pressure;BME280_temperature;BME280_humidity;BME280_pressure;Samples;Min_cycle;Max_cycle;Signal;HPM_P1;HPM_P2
2023/12/21 00:00:22;;;;;;;12.83;3.00;;;9.80;99.90;;;;;;5083157;28;20241;-56
2023/12/21 00:02:52;;;;;;;10.03;3.20;;;9.80;99.90;;;;;;5083204;28;20228;-55
2023/12/21 00:05:20;;;;;;;17.97;2.77;;;9.80;99.90;;;;;;5083422;27;20219;-57
2023/12/21 00:07:49;;;;;;;7.70;2.50;;;9.80;99.90;;;;;;5078949;28;20219;-56
2023/12/21 00:10:17;;;;;;;9.27;2.73;;;9.80;99.90;;;;;;5084384;28;20227;-57
2023/12/21 00:12:46;;;;;;;11.93;2.63;;;9.90;99.90;;;;;;5086854;28;20635;-56
2023/12/21 00:15:14;;;;;;;14.13;3.07;;;9.90;99.90;;;;;;5083670;28;20581;-56
2023/12/21 00:17:42;;;;;;;11.43;2.87;;;9.90;99.90;;;;;;5083127;27;20243;-54
2023/12/21 00:20:12;;;;;;;9.93;2.87;;;9.80;99.90;;;;;;5084573;28;20214;-56
2023/12/21 00:22:41;;;;;;;13.90;2.40;;;9.80;99.90;;;;;;5087039;28;20194;-56
2023/12/21 00:25:09;;;;;;;12.27;3.07;;;9.80;99.90;;;;;;5083480;28;20226;-54
2023/12/21 00:27:38;;;;;;;11.63;3.17;;;9.80;99.90;;;;;;5085471;28;20927;-56
2023/12/21 00:30:07;;;;;;;8.37;3.00;;;9.80;99.90;;;;;;5078995;28;20232;-56
2023/12/21 00:32:38;;;;;;;10.40;2.70;;;9.80;99.90;;;;;;5081973;28;20277;-55
2023/12/21 00:35:07;;;;;;;11.40;2.73;;;9.80;99.90;;;;;;5085549;28;20662;-57
2023/12/21 00:37:37;;;;;;;13.10;3.37;;;9.80;99.90;;;;;;5099157;28;20291;-56
2023/12/21 00:40:06;;;;;;;15.00;3.37;;;9.80;99.90;;;;;;5082202;28;20280;-56
2023/12/21 00:42:38;;;;;;;16.27;3.13;;;9.80;99.90;;;;;;5087447;28;20268;-56
2023/12/21 00:45:07;;;;;;;12.20;3.23;;;9.80;99.90;;;;;;5084163;28;20223;-56
2023/12/21 00:47:35;;;;;;;12.07;2.93;;;9.80;99.90;;;;;;5086476;28;20280;-57
2023/12/21 00:50:04;;;;;;;13.33;2.83;;;9.80;99.90;;;;;;5086443;28;20283;-54
2023/12/21 00:52:32;;;;;;;15.97;3.17;;;9.80;99.90;;;;;;5085886;28;20219;-57
2023/12/21 00:55:02;;;;;;;11.50;3.30;;;9.80;99.90;;;;;;5091313;28;20355;-57
2023/12/21 00:57:31;;;;;;;15.60;3.10;;;9.80;99.90;;;;;;5086161;28;20211;-55
2023/12/21 00:59:59;;;;;;;15.57;3.90;;;9.80;99.90;;;;;;5084290;28;20216;-56
2023/12/21 01:02:27;;;;;;;14.43;3.43;;;9.80;99.90;;;;;;5088420;28;20745;-55
2023/12/21 01:04:56;;;;;;;18.67;3.37;;;9.80;99.90;;;;;;5087781;28;20196;-57
2023/12/21 01:07:24;;;;;;;12.77;3.50;;;9.80;99.90;;;;;;5084283;28;20214;-56
2023/12/21 01:09:55;;;;;;;15.20;3.00;;;9.90;99.90;;;;;;5085491;28;20215;-57
2023/12/21 01:12:24;;;;;;;15.67;3.20;;;9.90;99.90;;;;;;5082059;28;20243;-56
2023/12/21 01:14:52;;;;;;;9.57;3.43;;;9.90;99.90;;;;;;5079810;28;20224;-57
2023/12/21 01:17:21;;;;;;;16.17;3.80;;;9.90;99.90;;;;;;5087259;28;20220;-57
2023/12/21 01:19:49;;;;;;;17.30;3.57;;;9.90;99.90;;;;;;5087831;28;20192;-56
2023/12/21 01:22:17;;;;;;;17.47;3.20;;;9.90;99.90;;;;;;5085076;28;20216;-57
2023/12/21 01:24:46;;;;;;;15.03;3.50;;;9.90;99.90;;;;;;5083130;27;20276;-56
2023/12/21 01:27:14;;;;;;;11.90;3.37;;;9.90;99.90;;;;;;5087823;28;20212;-57
2023/12/21 01:29:58;;;;;;;16.07;3.33;;;10.00;99.90;;;;;;5085340;28;20215;-55
2023/12/21 01:32:27;;;;;;;15.93;3.73;;;10.00;99.90;;;;;;5090848;28;20223;-57
2023/12/21 01:34:55;;;;;;;14.60;4.17;;;10.00;99.90;;;;;;5088912;28;20198;-54
2023/12/21 01:37:23;;;;;;;17.07;3.80;;;10.00;99.90;;;;;;5093323;28;20183;-57
2023/12/21 01:39:52;;;;;;;20.57;3.93;;;10.00;99.90;;;;;;5088925;28;20216;-56
2023/12/21 01:42:20;;;;;;;18.87;3.50;;;10.00;99.90;;;;;;5084010;28;20214;-57
2023/12/21 01:44:48;;;;;;;15.93;3.40;;;10.00;99.90;;;;;;5083173;28;20315;-57
2023/12/21 01:47:18;;;;;;;19.63;4.13;;;10.00;99.90;;;;;;5088866;28;20549;-56
2023/12/21 01:49:47;;;;;;;11.73;3.30;;;10.00;99.90;;;;;;5091234;28;20207;-57
2023/12/21 01:52:16;;;;;;;18.90;4.07;;;10.00;99.90;;;;;;5085972;28;20215;-55
2023/12/21 01:54:45;;;;;;;17.43;4.37;;;10.00;99.90;;;;;;5088304;28;20216;-56
2023/12/21 01:57:13;;;;;;;14.37;3.70;;;10.00;99.90;;;;;;5087877;28;20235;-57
2023/12/21 01:59:41;;;;;;;19.93;3.33;;;10.00;99.90;;;;;;5084711;28;20311;-56
2023/12/21 02:02:10;;;;;;;15.47;3.53;;;10.00;99.90;;;;;;5085624;28;20227;-56
2023/12/21 02:04:39;;;;;;;19.03;3.83;;;10.00;99.90;;;;;;5090050;28;20203;-56
2023/12/21 02:07:08;;;;;;;14.47;3.57;;;10.00;99.90;;;;;;5086391;28;20231;-57
2023/12/21 02:09:36;;;;;;;25.73;4.17;;;10.00;99.90;;;;;;5081699;28;20231;-57
2023/12/21 02:12:05;;;;;;;22.33;3.60;;;10.00;99.90;;;;;;5088730;28;20216;-55
2023/12/21 02:14:33;;;;;;;22.43;4.57;;;10.00;99.90;;;;;;5083087;27;20223;-56
2023/12/21 02:17:06;;;;;;;20.97;4.43;;;10.00;99.90;;;;;;5086397;28;20195;-56
2023/12/21 02:19:34;;;;;;;19.20;4.43;;;10.00;99.90;;;;;;5082159;28;20188;-57
2023/12/21 02:22:06;;;;;;;19.53;4.10;;;10.00;99.90;;;;;;5086188;28;20219;-56
2023/12/21 02:24:36;;;;;;;17.03;3.97;;;10.00;99.90;;;;;;5081588;28;20737;-56
2023/12/21 02:27:05;;;;;;;19.40;4.17;;;10.00;99.90;;;;;;5083399;28;20250;-56
2023/12/21 02:29:33;;;;;;;17.87;4.50;;;10.00;99.90;;;;;;5084416;28;20575;-57
2023/12/21 02:32:01;;;;;;;17.60;3.60;;;10.00;99.90;;;;;;5088673;28;20652;-56
2023/12/21 02:34:30;;;;;;;29.07;5.10;;;10.00;99.90;;;;;;5085504;28;20200;-57
2023/12/21 02:36:59;;;;;;;19.77;3.80;;;10.00;99.90;;;;;;5099388;27;20230;-56
2023/12/21 02:39:27;;;;;;;21.20;4.57;;;10.00;99.90;;;;;;5084593;28;20224;-57
2023/12/21 02:41:57;;;;;;;22.77;4.27;;;10.00;99.90;;;;;;5088749;28;20242;-56
2023/12/21 02:44:25;;;;;;;17.73;3.57;;;10.00;99.90;;;;;;5085644;28;20211;-57
2023/12/21 02:46:57;;;;;;;14.03;4.13;;;10.00;99.90;;;;;;5088956;28;20183;-56
2023/12/21 02:49:25;;;;;;;25.23;4.47;;;10.00;99.90;;;;;;5086987;28;20215;-54
2023/12/21 02:51:57;;;;;;;19.63;4.07;;;10.10;99.90;;;;;;5088114;28;20225;-55
2023/12/21 02:54:26;;;;;;;20.27;3.80;;;10.10;99.90;;;;;;5080485;28;20284;-55
2023/12/21 02:56:54;;;;;;;15.53;3.77;;;10.10;99.90;;;;;;5085138;28;20226;-56
2023/12/21 02:59:26;;;;;;;19.13;3.63;;;10.10;99.90;;;;;;5086484;28;20666;-57
2023/12/21 03:01:54;;;;;;;18.87;4.37;;;10.10;99.90;;;;;;5086412;28;20693;-55
2023/12/21 03:04:22;;;;;;;16.87;3.30;;;10.10;99.90;;;;;;5085344;28;20669;-57
2023/12/21 03:06:51;;;;;;;18.50;4.77;;;10.20;99.90;;;;;;5081799;28;20215;-55
2023/12/21 03:09:19;;;;;;;20.53;3.97;;;10.20;99.90;;;;;;5086378;28;20242;-57
2023/12/21 03:11:47;;;;;;;21.30;3.60;;;10.20;99.90;;;;;;5086628;28;20219;-56
2023/12/21 03:14:16;;;;;;;15.53;3.90;;;10.20;99.90;;;;;;5086294;28;20246;-56
2023/12/21 03:16:45;;;;;;;23.03;4.17;;;10.20;99.90;;;;;;5089193;28;20288;-57
2023/12/21 03:19:14;;;;;;;21.70;4.63;;;10.20;99.90;;;;;;5081211;28;20290;-57
2023/12/21 03:21:42;;;;;;;18.53;4.73;;;10.20;99.90;;;;;;5083326;28;20225;-54
2023/12/21 03:24:10;;;;;;;16.10;4.47;;;10.20;99.90;;;;;;5085362;28;20223;-54
2023/12/21 03:26:38;;;;;;;25.07;5.10;;;10.20;99.90;;;;;;5083773;28;20230;-56
2023/12/21 03:29:07;;;;;;;20.53;4.87;;;10.30;99.90;;;;;;5081304;28;20225;-56
2023/12/21 03:31:35;;;;;;;14.87;3.70;;;10.30;99.90;;;;;;5085406;28;20190;-56
2023/12/21 03:34:05;;;;;;;12.20;3.70;;;10.30;99.90;;;;;;5082402;28;20578;-55
2023/12/21 03:36:33;;;;;;;18.60;4.20;;;10.30;99.90;;;;;;5082871;28;20276;-55
2023/12/21 03:39:01;;;;;;;16.83;4.20;;;10.30;99.90;;;;;;5083897;28;20862;-56
2023/12/21 03:41:30;;;;;;;17.40;3.27;;;10.30;99.90;;;;;;5083293;28;20631;-57
2023/12/21 03:43:59;;;;;;;17.90;4.00;;;10.30;99.90;;;;;;5084456;28;20215;-57
2023/12/21 03:46:27;;;;;;;15.10;4.40;;;10.30;99.90;;;;;;5082838;28;20202;-55
2023/12/21 03:48:55;;;;;;;18.87;3.73;;;10.30;99.90;;;;;;5085540;28;20224;-56
2023/12/21 03:51:25;;;;;;;18.03;4.53;;;10.30;99.90;;;;;;5079893;28;20884;-57
2023/12/21 03:53:53;;;;;;;15.13;4.30;;;10.20;99.90;;;;;;5084266;28;20228;-55
2023/12/21 03:56:22;;;;;;;14.03;4.20;;;10.30;99.90;;;;;;5082655;28;20223;-56
2023/12/21 03:58:50;;;;;;;18.20;4.67;;;10.30;99.90;;;;;;5084742;28;20191;-56
2023/12/21 04:01:25;;;;;;;23.03;4.63;;;10.30;99.90;;;;;;5076997;28;20293;-57
2023/12/21 04:03:53;;;;;;;22.13;3.97;;;10.30;99.90;;;;;;5085909;28;20542;-55
2023/12/21 04:06:21;;;;;;;18.40;4.03;;;10.30;99.90;;;;;;5082459;28;20227;-56
2023/12/21 04:08:54;;;;;;;18.90;4.07;;;10.30;99.90;;;;;;5079677;28;20227;-56
2023/12/21 04:11:22;;;;;;;22.87;4.47;;;10.30;99.90;;;;;;5083166;28;20642;-55
2023/12/21 04:13:50;;;;;;;18.63;4.37;;;10.30;99.90;;;;;;5083154;28;20201;-56
2023/12/21 04:16:18;;;;;;;17.60;3.90;;;10.30;99.90;;;;;;5082820;28;20231;-57
2023/12/21 04:18:47;;;;;;;23.93;4.47;;;10.30;99.90;;;;;;5083727;28;20212;-57
2023/12/21 04:21:15;;;;;;;22.57;3.97;;;10.30;99.90;;;;;;5081874;28;20222;-57
2023/12/21 04:23:43;;;;;;;15.30;4.30;;;10.40;99.90;;;;;;5080350;28;20215;-56
2023/12/21 04:26:20;;;;;;;14.27;4.10;;;10.30;99.90;;;;;;5084074;28;20206;-57
2023/12/21 04:28:49;;;;;;;16.33;4.33;;;10.40;99.90;;;;;;5081895;28;20225;-57
2023/12/21 04:31:21;;;;;;;13.83;4.03;;;10.30;99.90;;;;;;5080127;28;20242;-56
2023/12/21 04:33:50;;;;;;;17.93;3.50;;;10.30;99.90;;;;;;5078976;28;20716;-56
2023/12/21 04:36:19;;;;;;;20.90;3.97;;;10.30;99.90;;;;;;5081767;28;20858;-57
2023/12/21 04:38:52;;;;;;;25.13;4.40;;;10.30;99.90;;;;;;5078720;28;20230;-57
2023/12/21 04:41:22;;;;;;;15.37;3.57;;;10.30;99.90;;;;;;5081583;28;20725;-56
2023/12/21 04:43:51;;;;;;;18.53;4.30;;;10.40;99.90;;;;;;5079816;28;20203;-57
2023/12/21 04:46:19;;;;;;;16.53;3.70;;;10.30;99.90;;;;;;5079743;28;20219;-55
2023/12/21 04:48:47;;;;;;;11.30;3.30;;;10.40;99.90;;;;;;5082629;28;20240;-56
2023/12/21 04:51:16;;;;;;;20.00;3.90;;;10.40;99.90;;;;;;5080648;28;20243;-56
2023/12/21 04:53:45;;;;;;;20.30;3.47;;;10.40;99.90;;;;;;5085245;28;20250;-56
2023/12/21 04:56:13;;;;;;;12.03;3.23;;;10.40;99.90;;;;;;5087109;28;20245;-57
2023/12/21 04:58:43;;;;;;;18.17;3.73;;;10.40;99.90;;;;;;5082212;28;20214;-55
2023/12/21 05:01:11;;;;;;;17.60;3.70;;;10.40;99.90;;;;;;5081733;28;20689;-56
2023/12/21 05:03:40;;;;;;;22.27;3.77;;;10.40;99.90;;;;;;5085535;28;20576;-55
2023/12/21 05:06:08;;;;;;;17.23;3.37;;;10.50;99.90;;;;;;5082896;28;20310;-56
2023/12/21 05:08:36;;;;;;;12.13;3.20;;;10.50;99.90;;;;;;5085433;27;20261;-56
2023/12/21 05:11:05;;;;;;;19.70;3.80;;;10.50;99.90;;;;;;5081671;28;20246;-57
2023/12/21 05:13:33;;;;;;;13.07;3.33;;;10.50;99.90;;;;;;5082164;28;20198;-56
2023/12/21 05:16:03;;;;;;;16.23;3.50;;;10.50;99.90;;;;;;5078133;28;20238;-55
2023/12/21 05:18:31;;;;;;;18.00;3.87;;;10.60;99.90;;;;;;5083314;28;20578;-54
2023/12/21 05:21:00;;;;;;;18.57;4.00;;;10.60;99.90;;;;;;5082424;28;20228;-57
2023/12/21 05:23:28;;;;;;;19.33;3.20;;;10.50;99.90;;;;;;5081191;28;20701;-57
2023/12/21 05:25:56;;;;;;;14.43;3.17;;;10.50;99.90;;;;;;5080495;28;20283;-56
2023/12/21 05:28:24;;;;;;;16.60;3.53;;;10.50;99.90;;;;;;5082461;28;20271;-54
2023/12/21 05:30:53;;;;;;;13.30;3.80;;;10.50;99.90;;;;;;5082202;28;20227;-56
2023/12/21 05:33:23;;;;;;;14.90;3.47;;;10.50;99.90;;;;;;5088010;28;20219;-55
2023/12/21 05:35:51;;;;;;;19.37;3.53;;;10.60;99.90;;;;;;5087390;28;20222;-56
2023/12/21 05:38:19;;;;;;;12.47;3.67;;;10.50;99.90;;;;;;5085955;28;20230;-55
2023/12/21 05:40:47;;;;;;;14.40;3.23;;;10.60;99.90;;;;;;5086536;28;20203;-56
2023/12/21 05:43:16;;;;;;;22.17;3.67;;;10.60;99.90;;;;;;5103584;28;20301;-56
2023/12/21 05:45:45;;;;;;;17.07;3.73;;;10.60;99.90;;;;;;5086091;28;20235;-54
2023/12/21 05:48:13;;;;;;;18.47;4.07;;;10.60;99.90;;;;;;5085905;28;20212;-57
2023/12/21 05:50:43;;;;;;;19.50;3.97;;;10.60;99.90;;;;;;5085728;28;20285;-55
2023/12/21 05:53:11;;;;;;;13.60;3.40;;;10.60;99.90;;;;;;5085452;28;20404;-53
2023/12/21 05:55:39;;;;;;;16.57;2.97;;;10.60;99.90;;;;;;5085327;28;20199;-56
2023/12/21 05:58:08;;;;;;;13.37;3.90;;;10.60;99.90;;;;;;5086400;28;20232;-57
2023/12/21 06:00:37;;;;;;;13.80;3.43;;;10.60;99.90;;;;;;5084941;28;20222;-56
2023/12/21 06:03:06;;;;;;;16.73;3.20;;;10.60;99.90;;;;;;5091571;28;20270;-56
2023/12/21 06:05:34;;;;;;;14.17;3.00;;;10.60;99.90;;;;;;5087983;28;20231;-57
2023/12/21 06:08:05;;;;;;;16.47;3.33;;;10.70;99.90;;;;;;5093961;28;20192;-56
2023/12/21 06:10:33;;;;;;;13.67;3.50;;;10.60;99.90;;;;;;5085409;28;20203;-56
2023/12/21 06:13:01;;;;;;;11.00;3.10;;;10.70;99.90;;;;;;5088218;28;20233;-57
2023/12/21 06:15:29;;;;;;;12.40;3.07;;;10.70;99.90;;;;;;5086881;28;20774;-58
2023/12/21 06:17:58;;;;;;;12.30;3.27;;;10.60;99.90;;;;;;5082457;27;20891;-56
2023/12/21 06:20:26;;;;;;;14.53;3.10;;;10.70;99.90;;;;;;5082028;28;20239;-55
2023/12/21 06:22:54;;;;;;;23.70;3.30;;;10.70;99.90;;;;;;5083935;28;20222;-56
2023/12/21 06:25:24;;;;;;;15.80;2.87;;;10.80;99.90;;;;;;4963859;28;20216;-56
2023/12/21 06:27:52;;;;;;;10.77;2.70;;;10.80;99.90;;;;;;4983576;28;20230;-57
2023/12/21 06:30:20;;;;;;;17.90;3.20;;;10.80;99.90;;;;;;5048014;28;20576;-55
2023/12/21 06:32:49;;;;;;;14.20;2.70;;;10.80;99.90;;;;;;5085896;28;20565;-56
2023/12/21 06:35:18;;;;;;;9.83;2.90;;;10.80;99.90;;;;;;5086887;28;20234;-56
2023/12/21 06:37:48;;;;;;;12.53;2.90;;;10.80;99.90;;;;;;5080595;28;20196;-55
2023/12/21 06:40:19;;;;;;;8.87;2.00;;;10.80;99.90;;;;;;5084568;28;20728;-56
2023/12/21 06:42:49;;;;;;;13.77;2.97;;;10.80;99.90;;;;;;5085453;28;20618;-56
2023/12/21 06:45:17;;;;;;;11.77;2.53;;;10.80;99.90;;;;;;5089151;28;20222;-54
2023/12/21 06:47:45;;;;;;;10.63;2.57;;;10.90;99.90;;;;;;5087517;28;20225;-57
2023/12/21 06:50:14;;;;;;;13.33;2.60;;;10.90;99.90;;;;;;5083511;28;20196;-55
2023/12/21 06:52:42;;;;;;;6.17;2.40;;;10.90;99.90;;;;;;5082690;28;20211;-56
2023/12/21 06:55:10;;;;;;;11.77;2.63;;;10.90;99.90;;;;;;5085487;28;20211;-56
2023/12/21 06:57:38;;;;;;;7.70;2.00;;;11.00;99.90;;;;;;5083414;28;20694;-56
2023/12/21 07:00:10;;;;;;;9.67;2.40;;;11.00;99.90;;;;;;5087904;27;20235;-55
2023/12/21 07:02:39;;;;;;;9.27;2.40;;;11.00;99.90;;;;;;5084327;28;20247;-55
2023/12/21 07:05:07;;;;;;;11.33;2.73;;;11.00;99.90;;;;;;5085161;28;20199;-57
2023/12/21 07:07:35;;;;;;;9.43;2.50;;;11.00;99.90;;;;;;5087062;28;20274;-58
2023/12/21 07:10:06;;;;;;;8.30;2.50;;;11.10;99.90;;;;;;5085217;28;20346;-56
2023/12/21 07:12:34;;;;;;;7.60;2.20;;;11.10;99.90;;;;;;5088245;27;20701;-56
2023/12/21 07:15:03;;;;;;;7.70;2.70;;;11.10;99.90;;;;;;5083195;28;20689;-56
2023/12/21 07:17:33;;;;;;;10.57;3.07;;;11.10;99.90;;;;;;5085284;28;20230;-55
2023/12/21 07:20:01;;;;;;;10.40;2.57;;;11.10;99.90;;;;;;5088621;28;20222;-56
2023/12/21 07:22:29;;;;;;;9.30;2.53;;;11.00;99.90;;;;;;5085763;28;20188;-56
2023/12/21 07:24:58;;;;;;;7.80;2.33;;;11.00;99.90;;;;;;5086786;28;20231;-56
2023/12/21 07:27:26;;;;;;;5.37;2.07;;;11.00;99.90;;;;;;5082017;28;20276;-54
2023/12/21 07:29:55;;;;;;;10.17;2.40;;;11.00;99.90;;;;;;5084031;28;20692;-53
2023/12/21 07:32:23;;;;;;;2.13;1.93;;;11.10;99.90;;;;;;5082468;28;20575;-56
2023/12/21 07:34:52;;;;;;;8.90;2.87;;;11.10;99.90;;;;;;5086411;28;20195;-57
2023/12/21 07:37:22;;;;;;;9.37;2.50;;;11.10;99.90;;;;;;5080355;28;20219;-56
2023/12/21 07:39:50;;;;;;;5.77;2.00;;;11.10;99.90;;;;;;5082933;28;20650;-57
2023/12/21 07:42:18;;;;;;;6.53;1.90;;;11.10;99.90;;;;;;5084827;28;20683;-57
2023/12/21 07:44:47;;;;;;;10.67;2.43;;;11.10;99.90;;;;;;5089885;28;20222;-56
2023/12/21 07:47:15;;;;;;;5.00;2.63;;;11.10;99.90;;;;;;5090664;28;20191;-56
2023/12/21 07:49:43;;;;;;;3.07;2.00;;;11.00;99.90;;;;;;5084521;28;20223;-53
2023/12/21 07:52:13;;;;;;;5.90;2.50;;;11.00;99.90;;;;;;5086073;28;20262;-56
2023/12/21 07:54:41;;;;;;;7.10;2.30;;;11.10;99.90;;;;;;5085319;28;20296;-57
2023/12/21 07:57:10;;;;;;;5.20;2.20;;;11.00;99.90;;;;;;5081607;27;20250;-55
2023/12/21 07:59:39;;;;;;;6.07;2.13;;;11.00;99.90;;;;;;5088669;28;20664;-55
2023/12/21 08:02:07;;;;;;;3.97;2.27;;;11.10;99.90;;;;;;5078888;28;20220;-54
2023/12/21 08:04:36;;;;;;;4.57;2.23;;;11.10;99.90;;;;;;5082535;28;20273;-57
2023/12/21 08:07:05;;;;;;;4.47;2.40;;;11.20;99.90;;;;;;5084245;28;20231;-56
2023/12/21 08:09:35;;;;;;;6.10;2.27;;;11.20;99.90;;;;;;5085675;28;20231;-56
2023/12/21 08:12:03;;;;;;;5.80;2.33;;;11.20;99.90;;;;;;5085552;28;20222;-56
2023/12/21 08:14:35;;;;;;;5.73;2.07;;;11.20;99.90;;;;;;5082039;27;20579;-56
2023/12/21 08:17:09;;;;;;;6.50;2.13;;;11.10;99.90;;;;;;5086751;28;20222;-56
2023/12/21 08:19:38;;;;;;;3.47;1.70;;;11.20;99.90;;;;;;5086014;28;20187;-55
2023/12/21 08:22:06;;;;;;;4.03;2.20;;;11.20;99.90;;;;;;5085402;28;20677;-54
2023/12/21 08:24:36;;;;;;;6.70;2.30;;;11.10;99.90;;;;;;5084192;28;20215;-55
2023/12/21 08:27:06;;;;;;;4.80;2.27;;;11.20;99.90;;;;;;5088231;28;20733;-55
2023/12/21 08:29:34;;;;;;;6.00;1.97;;;11.10;99.90;;;;;;5080052;28;20309;-58
2023/12/21 08:32:02;;;;;;;8.73;2.13;;;11.10;99.90;;;;;;5085487;28;20218;-56
2023/12/21 08:34:31;;;;;;;6.10;2.27;;;11.10;99.90;;;;;;5077741;28;20195;-56
2023/12/21 08:36:59;;;;;;;7.17;2.23;;;11.20;99.90;;;;;;5079823;28;20594;-55
2023/12/21 08:39:28;;;;;;;2.57;1.60;;;11.20;99.90;;;;;;5083518;28;20720;-56
2023/12/21 08:41:58;;;;;;;2.50;1.67;;;11.30;99.90;;;;;;5083656;28;20268;-54
2023/12/21 08:44:27;;;;;;;3.87;1.80;;;11.30;99.90;;;;;;5083823;28;20286;-56
2023/12/21 08:46:58;;;;;;;5.33;1.80;;;11.30;99.90;;;;;;5088387;28;20218;-54
2023/12/21 08:49:27;;;;;;;7.97;2.00;;;11.30;99.90;;;;;;5077210;28;20231;-56
2023/12/21 08:51:55;;;;;;;4.10;2.00;;;11.40;99.90;;;;;;5083857;28;20219;-56
2023/12/21 08:54:23;;;;;;;5.40;1.83;;;11.40;99.90;;;;;;5078549;28;20899;-54
2023/12/21 08:56:52;;;;;;;2.97;1.67;;;11.40;99.90;;;;;;5080557;28;20218;-55
2023/12/21 08:59:25;;;;;;;4.33;1.70;;;11.40;99.90;;;;;;5082297;28;20233;-56
2023/12/21 09:01:54;;;;;;;4.33;1.93;;;11.40;99.90;;;;;;5087063;28;20231;-55
2023/12/21 09:04:23;;;;;;;4.67;2.03;;;11.50;99.90;;;;;;4977665;28;20231;-56
2023/12/21 09:06:52;;;;;;;10.27;2.33;;;11.50;99.90;;;;;;5061901;28;20227;-55
2023/12/21 09:09:20;;;;;;;3.10;2.13;;;11.50;99.90;;;;;;5083109;28;20220;-55
2023/12/21 09:11:49;;;;;;;7.20;1.60;;;11.50;99.90;;;;;;5086468;28;20218;-53
2023/12/21 09:14:17;;;;;;;3.90;1.70;;;11.50;99.90;;;;;;5086388;28;20220;-55
2023/12/21 09:16:48;;;;;;;5.50;1.93;;;11.60;99.90;;;;;;5092134;28;20204;-56
2023/12/21 09:19:17;;;;;;;2.00;1.80;;;11.60;99.90;;;;;;5085209;28;20238;-56
2023/12/21 09:21:45;;;;;;;4.17;2.10;;;11.60;99.90;;;;;;5085217;28;20242;-56
2023/12/21 09:24:13;;;;;;;2.47;1.63;;;11.60;99.90;;;;;;5085935;28;20208;-57
2023/12/21 09:26:41;;;;;;;2.43;1.60;;;11.60;99.90;;;;;;5085065;28;20721;-55
2023/12/21 09:29:09;;;;;;;2.30;1.60;;;11.70;99.90;;;;;;5087389;28;20919;-57
2023/12/21 09:31:39;;;;;;;4.20;1.60;;;11.80;99.90;;;;;;5088238;28;20219;-55
2023/12/21 09:34:11;;;;;;;1.93;1.70;;;11.80;99.90;;;;;;5081604;28;20216;-54
2023/12/21 09:36:39;;;;;;;2.23;1.57;;;11.80;99.90;;;;;;5088672;28;20214;-56
2023/12/21 09:39:08;;;;;;;2.70;1.70;;;;;;;;;;5085346;28;20229;-56
2023/12/21 09:41:36;;;;;;;3.93;2.30;;;12.00;99.90;;;;;;5081426;28;20227;-56
2023/12/21 09:44:17;;;;;;;1.67;1.57;;;12.00;99.90;;;;;;5086558;28;20214;-56
2023/12/21 09:46:46;;;;;;;2.90;1.60;;;12.00;99.90;;;;;;5089905;28;20585;-55
2023/12/21 09:49:17;;;;;;;3.30;2.30;;;12.10;99.90;;;;;;5085354;28;20219;-54
2023/12/21 09:51:46;;;;;;;2.60;1.70;;;12.10;99.90;;;;;;5086412;28;20249;-55
2023/12/21 09:54:17;;;;;;;3.03;1.73;;;12.10;99.90;;;;;;5088419;28;20224;-56
2023/12/21 09:56:50;;;;;;;2.40;1.70;;;12.10;99.90;;;;;;5089533;28;20223;-56
2023/12/21 09:59:19;;;;;;;2.93;1.80;;;12.20;99.90;;;;;;5088658;28;20267;-56
2023/12/21 10:01:50;;;;;;;5.17;1.70;;;12.20;99.90;;;;;;5085853;28;20839;-56
2023/12/21 10:04:21;;;;;;;2.07;1.40;;;12.20;99.90;;;;;;5079538;28;20318;-56
2023/12/21 10:06:51;;;;;;;7.10;2.00;;;12.10;99.90;;;;;;5082757;28;20223;-56
2023/12/21 10:09:20;;;;;;;2.50;1.40;;;12.10;99.90;;;;;;5085254;28;20222;-54
2023/12/21 10:11:48;;;;;;;2.57;1.50;;;12.10;99.90;;;;;;5082867;28;20234;-55
2023/12/21 10:14:17;;;;;;;3.40;1.90;;;12.10;99.90;;;;;;5090560;28;20242;-56
2023/12/21 10:16:46;;;;;;;2.53;1.67;;;12.10;99.90;;;;;;5084881;28;20204;-56
2023/12/21 10:19:16;;;;;;;3.13;1.50;;;12.10;99.90;;;;;;5084277;28;20251;-55
2023/12/21 10:21:46;;;;;;;5.00;1.50;;;12.10;99.90;;;;;;5085561;28;20228;-56
2023/12/21 10:24:14;;;;;;;4.90;1.60;;;12.00;99.90;;;;;;5085407;28;20564;-55
2023/12/21 10:26:44;;;;;;;4.83;1.77;;;12.00;99.90;;;;;;5080748;28;20239;-55
2023/12/21 10:29:18;;;;;;;5.17;1.70;;;12.00;99.90;;;;;;5089581;28;20267;-56
2023/12/21 10:31:47;;;;;;;7.00;1.70;;;12.00;99.90;;;;;;5084295;28;20573;-56
2023/12/21 10:34:17;;;;;;;6.90;1.70;;;12.00;99.90;;;;;;5084709;28;20293;-56
2023/12/21 10:36:47;;;;;;;3.37;1.30;;;12.00;99.90;;;;;;5086953;28;20230;-57
2023/12/21 10:39:16;;;;;;;2.67;1.43;;;12.00;99.90;;;;;;5086203;28;20346;-57
2023/12/21 10:41:45;;;;;;;3.93;1.77;;;12.00;99.90;;;;;;5083865;28;20264;-56
2023/12/21 10:44:16;;;;;;;4.20;1.70;;;12.00;99.90;;;;;;5081604;28;20207;-56
2023/12/21 10:46:45;;;;;;;4.13;1.80;;;12.00;99.90;;;;;;5088015;28;20217;-55
2023/12/21 10:49:14;;;;;;;3.83;1.50;;;12.10;99.90;;;;;;5084257;28;20231;-57
2023/12/21 10:51:43;;;;;;;5.83;2.07;;;12.10;99.90;;;;;;5085666;28;20596;-57
2023/12/21 10:54:14;;;;;;;1.83;1.57;;;12.10;99.90;;;;;;5085137;28;20303;-57
2023/12/21 10:56:42;;;;;;;3.97;1.60;;;12.20;99.90;;;;;;5084568;28;20269;-56
2023/12/21 10:59:14;;;;;;;3.70;1.27;;;12.20;99.90;;;;;;5075252;28;20287;-56
2023/12/21 11:01:42;;;;;;;3.20;1.60;;;12.20;99.90;;;;;;5081445;28;20195;-57
2023/12/21 11:04:12;;;;;;;4.90;1.60;;;12.20;99.90;;;;;;5088514;28;20302;-56
2023/12/21 11:06:43;;;;;;;5.47;1.77;;;12.20;99.90;;;;;;5085146;28;20215;-56
2023/12/21 11:09:18;;;;;;;4.70;1.50;;;12.30;99.90;;;;;;5088660;28;20223;-56
2023/12/21 11:11:50;;;;;;;2.27;1.30;;;12.30;99.90;;;;;;5085627;28;20218;-56
2023/12/21 11:14:19;;;;;;;2.73;1.50;;;12.30;99.90;;;;;;5082621;28;20230;-56
2023/12/21 11:16:50;;;;;;;4.43;1.57;;;12.30;99.90;;;;;;5086496;28;20211;-55
2023/12/21 11:19:27;;;;;;;1.80;1.30;;;12.30;99.90;;;;;;5087528;28;20562;-53
2023/12/21 11:21:57;;;;;;;3.73;1.50;;;12.30;99.90;;;;;;5087948;28;20341;-57
2023/12/21 11:24:26;;;;;;;2.40;1.60;;;12.30;99.90;;;;;;5085103;28;20207;-57
2023/12/21 11:26:57;;;;;;;3.93;1.63;;;12.20;99.90;;;;;;5085302;28;20218;-57
2023/12/21 11:29:27;;;;;;;1.93;1.47;;;12.10;99.90;;;;;;5081913;28;20219;-57
2023/12/21 11:31:57;;;;;;;2.80;1.70;;;12.10;99.90;;;;;;5088687;27;20604;-53
2023/12/21 11:34:36;;;;;;;7.57;2.00;;;12.00;99.90;;;;;;5083399;28;20218;-57
2023/12/21 11:37:18;;;;;;;5.03;1.73;;;11.90;99.90;;;;;;5083781;28;20219;-55
2023/12/21 11:39:49;;;;;;;2.70;1.50;;;11.80;99.90;;;;;;5083271;28;20310;-55
2023/12/21 11:42:20;;;;;;;3.53;1.50;;;11.80;99.90;;;;;;5085054;28;20224;-55
2023/12/21 11:44:52;;;;;;;4.70;1.90;;;11.70;99.90;;;;;;5086035;28;20231;-54
2023/12/21 11:47:20;;;;;;;43.93;17.43;;;11.70;99.90;;;;;;5085653;28;20222;-56
2023/12/21 11:49:48;;;;;;;4.37;1.93;;;11.60;99.90;;;;;;5089052;28;20306;-56
2023/12/21 11:52:26;;;;;;;5.03;1.80;;;11.60;99.90;;;;;;5082752;28;20300;-56
2023/12/21 11:54:55;;;;;;;4.20;1.73;;;11.70;99.90;;;;;;5082387;28;20251;-56
2023/12/21 11:57:29;;;;;;;3.67;2.00;;;11.70;99.90;;;;;;5089660;28;20273;-56
2023/12/21 12:00:07;;;;;;;4.77;1.90;;;11.70;99.90;;;;;;5083467;28;20216;-55
2023/12/21 12:02:36;;;;;;;5.40;2.00;;;11.70;99.90;;;;;;5085752;28;20607;-56
2023/12/21 12:05:05;;;;;;;2.87;1.57;;;11.80;99.90;;;;;;5087478;28;20549;-56
2023/12/21 12:07:35;;;;;;;4.23;1.77;;;11.80;99.90;;;;;;5078082;28;20204;-55
2023/12/21 12:10:07;;;;;;;3.70;1.70;;;11.80;99.90;;;;;;5082658;28;20211;-56
2023/12/21 12:12:36;;;;;;;5.83;2.10;;;11.80;99.90;;;;;;5077913;28;20700;-56
2023/12/21 12:15:05;;;;;;;4.97;1.93;;;11.80;99.90;;;;;;5080710;28;20334;-56
2023/12/21 12:17:33;;;;;;;4.90;1.70;;;11.80;99.90;;;;;;5082829;28;20697;-56
2023/12/21 12:20:03;;;;;;;8.20;2.33;;;11.90;99.90;;;;;;5085266;28;20199;-57
2023/12/21 12:22:32;;;;;;;3.83;2.00;;;12.00;99.90;;;;;;5086545;28;20902;-55
2023/12/21 12:25:01;;;;;;;6.83;2.20;;;12.00;99.90;;;;;;5082384;28;20268;-57
2023/12/21 12:27:31;;;;;;;6.83;2.00;;;11.90;99.90;;;;;;5079539;28;20281;-55
2023/12/21 12:30:00;;;;;;;5.73;2.57;;;11.90;99.90;;;;;;5083159;28;20211;-57
2023/12/21 12:32:28;;;;;;;6.87;1.90;;;11.90;99.90;;;;;;5084854;27;20222;-57
2023/12/21 12:34:56;;;;;;;7.33;2.33;;;11.90;99.90;;;;;;5083601;28;20211;-56
2023/12/21 12:37:24;;;;;;;3.87;1.90;;;11.90;99.90;;;;;;5085628;28;20180;-60
2023/12/21 12:39:53;;;;;;;5.57;2.20;;;11.80;99.90;;;;;;5085400;28;20555;-57
2023/12/21 12:42:21;;;;;;;2.83;1.70;;;11.70;99.90;;;;;;5084365;28;20226;-57
2023/12/21 12:44:52;;;;;;;5.10;2.37;;;11.70;99.90;;;;;;5086153;28;20661;-57
2023/12/21 12:47:21;;;;;;;3.90;1.97;;;11.60;99.90;;;;;;5084890;27;20234;-57
2023/12/21 12:49:49;;;;;;;9.83;2.47;;;;;;;;;;5083300;28;20286;-57
2023/12/21 12:52:19;;;;;;;10.53;2.53;;;;;;;;;;5080872;28;20220;-58